createdAt,value
2023-02-14T00:02:23.351Z,6.32
2023-02-14T00:04:49.931Z,6.29
2023-02-14T00:07:16.517Z,6.27
2023-02-14T00:09:43.021Z,6.25
2023-02-14T00:12:09.595Z,6.25
2023-02-14T00:14:54.588Z,6.22
2023-02-14T00:17:21.114Z,6.20
2023-02-14T00:19:47.663Z,6.18
2023-02-14T00:22:14.288Z,6.17
2023-02-14T00:24:40.843Z,6.16
2023-02-14T00:27:07.426Z,6.12
2023-02-14T00:29:34.495Z,6.12
2023-02-14T00:32:01.517Z,6.10
2023-02-14T00:34:28.335Z,6.07
2023-02-14T00:36:54.817Z,6.33
2023-02-14T00:39:21.325Z,6.06
2023-02-14T00:41:47.931Z,6.02
2023-02-14T00:44:14.529Z,5.98
2023-02-14T00:46:41.809Z,5.95
2023-02-14T00:49:08.789Z,5.91
2023-02-14T00:51:35.493Z,5.90
2023-02-14T00:54:02.266Z,5.87
2023-02-14T00:56:28.893Z,6.09
2023-02-14T00:58:55.397Z,5.83
2023-02-14T01:01:22.255Z,5.78
2023-02-14T01:03:48.692Z,6.00
2023-02-14T01:06:16.035Z,5.72
2023-02-14T01:08:42.781Z,5.66
2023-02-14T01:11:13.981Z,5.89
2023-02-14T01:13:41.005Z,5.62
2023-02-14T01:16:09.588Z,5.56
2023-02-14T01:18:37.064Z,5.50
2023-02-14T01:21:14.465Z,5.54
2023-02-14T01:23:41.172Z,5.71
2023-02-14T01:26:08.757Z,5.46
2023-02-14T01:28:35.836Z,5.42
2023-02-14T01:31:07.801Z,5.44
2023-02-14T01:33:34.497Z,5.37
2023-02-14T01:36:01.022Z,5.37
2023-02-14T01:38:27.566Z,5.34
2023-02-14T01:40:54.043Z,5.34
2023-02-14T01:43:20.569Z,5.32
2023-02-14T01:45:47.211Z,5.31
2023-02-14T01:48:15.335Z,5.30
2023-02-14T01:50:44.945Z,5.29
2023-02-14T01:53:21.330Z,5.28
2023-02-14T01:55:56.931Z,5.28
2023-02-14T01:58:27.325Z,5.25
2023-02-14T02:01:00.222Z,5.19
2023-02-14T02:03:32.661Z,5.22
2023-02-14T02:06:14.052Z,5.25
2023-02-14T02:08:47.970Z,5.18
2023-02-14T02:11:14.480Z,5.14
2023-02-14T02:13:40.967Z,5.14
2023-02-14T02:16:33.521Z,5.21
2023-02-14T02:19:08.898Z,5.17
2023-02-14T02:21:54.209Z,5.13
2023-02-14T02:24:26.361Z,5.17
2023-02-14T02:27:28.284Z,5.13
2023-02-14T02:29:57.430Z,5.17
2023-02-14T02:32:29.621Z,5.13
2023-02-14T02:35:05.641Z,5.17
2023-02-14T02:38:05.356Z,5.25
2023-02-14T02:41:04.076Z,5.23
2023-02-14T02:43:55.366Z,5.21
2023-02-14T02:46:48.516Z,5.15
2023-02-14T02:49:50.463Z,5.18
2023-02-14T02:52:56.586Z,5.14
2023-02-14T02:55:30.461Z,5.11
2023-02-14T02:57:57.518Z,5.08
2023-02-14T03:00:25.087Z,5.06
2023-02-14T03:03:27.709Z,5.06
2023-02-14T03:05:54.605Z,5.05
2023-02-14T03:08:21.134Z,5.02
2023-02-14T03:10:47.670Z,5.02
2023-02-14T03:13:42.156Z,5.09
2023-02-14T03:16:28.716Z,5.09
2023-02-14T03:19:18.437Z,5.08
2023-02-14T03:22:10.680Z,5.05
2023-02-14T03:25:01.810Z,5.05
2023-02-14T03:27:50.053Z,4.98
2023-02-14T03:30:45.724Z,5.00
2023-02-14T03:33:38.842Z,5.04
2023-02-14T03:36:31.717Z,5.00
2023-02-14T03:39:22.848Z,4.98
2023-02-14T03:41:55.142Z,4.89
2023-02-14T03:44:25.914Z,4.84
2023-02-14T03:46:58.098Z,4.83
2023-02-14T03:49:29.823Z,4.83
2023-02-14T03:51:58.656Z,4.79
2023-02-14T03:54:27.214Z,4.77
2023-02-14T03:57:01.524Z,4.77
2023-02-14T03:59:29.324Z,4.70
2023-02-14T04:02:08.849Z,4.75
2023-02-14T04:04:40.621Z,4.69
2023-02-14T04:07:22.289Z,4.70
2023-02-14T04:09:49.546Z,4.61
2023-02-14T04:12:21.733Z,4.59
2023-02-14T04:14:50.469Z,4.55
2023-02-14T04:17:35.299Z,4.53
2023-02-14T04:20:01.780Z,4.51
2023-02-14T04:22:28.306Z,4.49
2023-02-14T04:24:54.753Z,4.46
2023-02-14T04:27:21.301Z,4.43
2023-02-14T04:29:49.903Z,4.42
2023-02-14T04:32:20.336Z,4.40
2023-02-14T04:34:47.057Z,4.34
2023-02-14T04:37:15.561Z,4.32
2023-02-14T04:39:42.020Z,4.29
2023-02-14T04:42:09.342Z,4.28
2023-02-14T04:44:38.212Z,4.25
2023-02-14T04:47:05.914Z,4.22
2023-02-14T04:49:32.932Z,4.20
2023-02-14T04:51:59.914Z,4.18
2023-02-14T04:54:26.525Z,4.17
2023-02-14T04:56:53.221Z,4.16
2023-02-14T04:59:19.848Z,4.16
2023-02-14T05:01:46.402Z,4.16
2023-02-14T05:04:12.944Z,4.14
2023-02-14T05:06:39.426Z,4.14
2023-02-14T05:09:06.211Z,4.15
2023-02-14T05:11:32.719Z,4.48
2023-02-14T05:13:59.323Z,4.66
2023-02-14T05:16:26.016Z,5.09
2023-02-14T05:18:52.510Z,5.63
2023-02-14T05:21:19.028Z,6.08
2023-02-14T05:23:45.693Z,6.60
2023-02-14T05:26:12.240Z,7.10
2023-02-14T05:28:41.087Z,7.64
2023-02-14T05:31:09.075Z,7.94
2023-02-14T05:33:35.964Z,8.19
2023-02-14T05:36:02.843Z,8.54
2023-02-14T05:38:30.658Z,8.39
2023-02-14T05:40:57.387Z,8.36
2023-02-14T05:43:23.949Z,8.58
2023-02-14T05:45:50.556Z,8.18
2023-02-14T05:48:18.018Z,8.01
2023-02-14T05:50:45.631Z,7.80
2023-02-14T05:53:12.626Z,7.60
2023-02-14T05:55:39.274Z,7.42
2023-02-14T05:58:06.087Z,7.24
2023-02-14T06:00:32.564Z,7.37
2023-02-14T06:02:59.053Z,6.91
2023-02-14T06:05:25.735Z,6.71
2023-02-14T06:07:52.365Z,6.55
2023-02-14T06:10:23.308Z,6.48
2023-02-14T06:12:51.602Z,6.56
2023-02-14T06:15:18.241Z,6.71
2023-02-14T06:17:44.889Z,6.95
2023-02-14T06:20:11.880Z,7.19
2023-02-14T06:22:39.327Z,7.46
2023-02-14T06:25:06.523Z,7.71
2023-02-14T06:27:33.245Z,7.97
2023-02-14T06:30:00.435Z,8.38
2023-02-14T06:32:27.030Z,8.35
2023-02-14T06:34:53.614Z,8.38
2023-02-14T06:37:20.290Z,8.35
2023-02-14T06:39:46.865Z,8.27
2023-02-14T06:42:13.387Z,8.13
2023-02-14T06:44:39.856Z,7.97
2023-02-14T06:47:06.400Z,7.79
2023-02-14T06:49:32.869Z,7.61
2023-02-14T06:51:59.389Z,7.43
2023-02-14T06:54:25.929Z,7.23
2023-02-14T06:56:52.445Z,7.09
2023-02-14T06:59:18.949Z,6.95
2023-02-14T07:01:45.517Z,6.83
2023-02-14T07:04:12.112Z,6.72
2023-02-14T07:06:38.861Z,6.65
2023-02-14T07:09:05.687Z,6.83
2023-02-14T07:11:32.190Z,6.54
2023-02-14T07:13:58.715Z,6.46
2023-02-14T07:16:25.286Z,6.41
2023-02-14T07:18:51.793Z,6.37
2023-02-14T07:21:18.300Z,6.36
2023-02-14T07:23:47.809Z,6.34
2023-02-14T07:26:18.222Z,6.33
2023-02-14T07:28:45.631Z,6.33
2023-02-14T07:31:12.630Z,6.37
2023-02-14T07:33:39.218Z,6.39
2023-02-14T07:36:07.184Z,6.44
2023-02-14T07:38:34.508Z,6.47
2023-02-14T07:41:01.719Z,6.52
2023-02-14T07:43:28.727Z,6.57
2023-02-14T07:45:55.197Z,6.84
2023-02-14T07:48:22.138Z,6.71
2023-02-14T07:50:48.772Z,6.77
2023-02-14T07:53:15.299Z,6.82
2023-02-14T07:55:41.821Z,6.89
2023-02-14T07:58:08.328Z,6.93
2023-02-14T08:00:34.944Z,7.00
2023-02-14T08:03:01.562Z,7.07
2023-02-14T08:05:28.191Z,7.14
2023-02-14T08:07:54.728Z,7.23
2023-02-14T08:10:21.256Z,7.32
2023-02-14T08:13:00.090Z,7.43
2023-02-14T08:15:50.073Z,7.55
2023-02-14T08:18:18.374Z,7.68
2023-02-14T08:20:49.956Z,7.83
2023-02-14T08:23:17.263Z,7.94
2023-02-14T08:25:43.801Z,8.07
2023-02-14T08:28:10.625Z,8.22
2023-02-14T08:30:38.166Z,8.50
2023-02-14T08:33:05.376Z,8.52
2023-02-14T08:35:31.880Z,8.65
2023-02-14T08:37:58.484Z,8.81
2023-02-14T08:40:25.305Z,8.96
2023-02-14T08:42:51.825Z,9.25
2023-02-14T08:45:18.477Z,9.27
2023-02-14T08:47:45.004Z,9.42
2023-02-14T08:50:14.574Z,9.57
2023-02-14T08:52:43.366Z,9.70
2023-02-14T08:55:11.658Z,9.81
2023-02-14T08:57:38.512Z,9.91
2023-02-14T09:00:07.313Z,10.00
2023-02-14T09:02:34.561Z,10.08
2023-02-14T09:05:02.106Z,10.14
2023-02-14T09:07:28.617Z,10.21
2023-02-14T09:09:55.165Z,10.29
2023-02-14T09:12:21.972Z,10.38
2023-02-14T09:14:48.401Z,10.62
2023-02-14T09:17:15.796Z,10.55
2023-02-14T09:19:42.440Z,10.61
2023-02-14T09:22:10.955Z,10.70
2023-02-14T09:24:39.066Z,10.74
2023-02-14T09:27:06.294Z,10.79
2023-02-14T09:29:33.773Z,10.84
2023-02-14T09:32:02.195Z,10.89
2023-02-14T09:34:30.075Z,10.95
2023-02-14T09:37:15.412Z,10.99
2023-02-14T09:39:41.951Z,11.06
2023-02-14T09:42:48.484Z,11.20
2023-02-14T09:45:20.412Z,11.21
2023-02-14T09:47:52.251Z,11.28
2023-02-14T09:50:30.696Z,11.39
2023-02-14T10:01:15.488Z,11.88
2023-02-14T10:04:39.873Z,12.05
2023-02-14T10:07:21.613Z,12.25
2023-02-14T10:10:06.176Z,12.40
2023-02-14T10:12:40.302Z,12.53
2023-02-14T10:15:15.898Z,12.66
2023-02-14T10:17:47.087Z,12.79
2023-02-14T10:20:34.740Z,12.93
2023-02-14T10:23:16.524Z,13.06
2023-02-14T10:25:48.790Z,13.15
2023-02-14T10:28:22.767Z,13.24
2023-02-14T10:31:02.566Z,13.37
2023-02-14T10:33:33.339Z,13.44
2023-02-14T10:36:05.773Z,13.56
2023-02-14T10:38:49.169Z,13.69
2023-02-14T10:41:34.240Z,13.80
2023-02-14T10:44:20.602Z,13.93
2023-02-14T10:47:10.166Z,14.07
2023-02-14T10:49:46.924Z,14.16
2023-02-14T10:52:16.377Z,14.29
2023-02-14T10:54:50.655Z,14.43
2023-02-14T10:57:26.059Z,14.59
2023-02-14T11:00:00.962Z,14.77
2023-02-14T11:02:41.390Z,14.95
2023-02-14T11:05:18.946Z,15.03
2023-02-14T11:07:45.395Z,15.16
2023-02-14T11:10:14.646Z,15.27
2023-02-14T11:12:41.914Z,15.40
2023-02-14T11:15:11.841Z,15.53
2023-02-14T11:17:38.349Z,15.62
2023-02-14T11:20:22.576Z,15.76
2023-02-14T11:22:50.205Z,15.78
2023-02-14T11:25:22.804Z,15.86
2023-02-14T11:27:56.634Z,15.87
2023-02-14T11:30:39.120Z,15.89
2023-02-14T11:33:09.377Z,15.87
2023-02-14T11:35:37.061Z,15.87
2023-02-14T11:38:21.967Z,15.91
2023-02-14T11:40:55.430Z,15.95
2023-02-14T11:43:35.308Z,16.02
2023-02-14T11:46:28.074Z,16.11
2023-02-14T11:48:57.449Z,16.20
2023-02-14T11:51:34.096Z,16.33
2023-02-14T11:54:05.043Z,16.45
2023-02-14T11:56:48.851Z,16.63
2023-02-14T11:59:37.038Z,16.77
2023-02-14T12:02:38.167Z,16.90
2023-02-14T12:05:20.693Z,16.99
2023-02-14T12:07:52.718Z,17.10
2023-02-14T12:10:27.347Z,17.21
2023-02-14T12:13:08.942Z,17.37
2023-02-14T12:15:49.162Z,17.45
2023-02-14T12:18:34.566Z,17.59
2023-02-14T12:21:12.953Z,17.62
2023-02-14T12:23:50.869Z,17.78
2023-02-14T12:26:33.078Z,17.88
2023-02-14T12:29:12.233Z,17.95
2023-02-14T12:31:38.874Z,18.03
2023-02-14T12:34:05.847Z,18.10
2023-02-14T12:37:02.137Z,18.26
2023-02-14T12:39:51.550Z,18.34
2023-02-14T12:42:26.827Z,18.40
2023-02-14T12:45:02.585Z,18.48
2023-02-14T12:47:48.362Z,18.63
2023-02-14T12:50:43.919Z,18.67
2023-02-14T12:53:45.408Z,18.85
2023-02-14T12:56:18.323Z,18.91
2023-02-14T12:58:57.138Z,19.06
2023-02-14T13:01:38.880Z,19.15
2023-02-14T13:04:45.176Z,19.34
2023-02-14T13:07:45.160Z,19.50
2023-02-14T13:10:19.546Z,19.55
2023-02-14T13:13:02.819Z,19.68
2023-02-14T13:15:38.408Z,19.73
2023-02-14T13:18:07.812Z,19.78
2023-02-14T13:20:42.959Z,19.86
2023-02-14T13:23:34.894Z,19.89
2023-02-14T13:26:05.654Z,19.92
2023-02-14T13:28:33.784Z,19.89
2023-02-14T13:31:01.941Z,19.92
2023-02-14T13:33:35.241Z,19.98
2023-02-14T13:36:06.120Z,20.02
2023-02-14T13:38:32.946Z,20.06
2023-02-14T13:41:01.797Z,20.13
2023-02-14T13:44:08.190Z,20.34
2023-02-14T13:46:34.651Z,20.29
2023-02-14T13:49:07.867Z,20.39
2023-02-14T13:51:48.871Z,20.49
2023-02-14T13:54:33.596Z,20.61
2023-02-14T13:57:01.816Z,20.65
2023-02-14T13:59:37.319Z,20.77
2023-02-14T14:02:43.264Z,20.95
2023-02-14T14:05:32.515Z,20.96
2023-02-14T14:08:31.970Z,21.03
2023-02-14T14:11:32.334Z,20.95
2023-02-14T14:14:20.654Z,20.98
2023-02-14T14:16:58.763Z,20.95
2023-02-14T14:19:25.165Z,20.85
2023-02-14T14:22:02.324Z,21.11
2023-02-14T14:24:31.174Z,20.88
2023-02-14T14:27:29.856Z,20.86
2023-02-14T14:30:05.454Z,20.84
2023-02-14T14:32:37.314Z,20.76
2023-02-14T14:35:08.360Z,20.73
2023-02-14T14:37:37.246Z,20.70
2023-02-14T14:40:07.083Z,20.66
2023-02-14T14:42:39.206Z,20.65
2023-02-14T14:45:21.673Z,20.69
2023-02-14T14:47:49.033Z,20.60
2023-02-14T14:50:19.772Z,20.63
2023-02-14T14:52:49.024Z,20.61
2023-02-14T14:55:24.310Z,20.71
2023-02-14T14:57:57.122Z,20.69
2023-02-14T15:00:29.495Z,20.71
2023-02-14T15:02:57.401Z,20.66
2023-02-14T15:05:34.163Z,20.67
2023-02-14T15:08:33.077Z,20.78
2023-02-14T15:11:10.427Z,20.60
2023-02-14T15:13:49.918Z,20.58
2023-02-14T15:16:19.256Z,20.52
2023-02-14T15:18:46.260Z,20.51
2023-02-14T15:21:13.450Z,20.50
2023-02-14T15:23:44.038Z,20.53
2023-02-14T15:26:18.360Z,20.59
2023-02-14T15:28:53.615Z,20.53
2023-02-14T15:31:20.362Z,20.51
2023-02-14T15:33:47.054Z,20.50
2023-02-14T15:36:20.426Z,20.51
2023-02-14T15:38:47.419Z,20.43
2023-02-14T15:41:14.471Z,20.38
2023-02-14T15:43:41.345Z,20.33
2023-02-14T15:46:29.018Z,20.35
2023-02-14T15:48:58.735Z,20.23
2023-02-14T15:51:29.257Z,20.14
2023-02-14T15:54:02.668Z,20.05
2023-02-14T15:56:32.370Z,19.93
2023-02-14T15:59:02.614Z,19.84
2023-02-14T16:01:31.520Z,19.71
2023-02-14T16:04:01.810Z,19.63
2023-02-14T16:06:44.677Z,19.58
2023-02-14T16:09:27.911Z,19.52
2023-02-14T16:11:54.948Z,19.23
2023-02-14T16:14:36.345Z,19.20
2023-02-14T16:17:11.720Z,18.96
2023-02-14T16:19:46.021Z,18.78
2023-02-14T16:22:24.954Z,18.62
2023-02-14T16:24:51.413Z,18.28
2023-02-14T16:27:17.913Z,18.09
2023-02-14T16:29:44.277Z,18.38
2023-02-14T16:32:20.791Z,17.84
2023-02-14T16:34:48.397Z,17.53
2023-02-14T16:37:22.367Z,17.39
2023-02-14T16:39:53.975Z,17.12
2023-02-14T16:42:20.589Z,16.94
2023-02-14T16:44:48.030Z,17.25
2023-02-14T16:47:16.088Z,16.72
2023-02-14T16:49:42.632Z,16.50
2023-02-14T16:52:23.885Z,16.47
2023-02-14T16:54:50.656Z,16.17
2023-02-14T16:57:20.093Z,16.47
2023-02-14T16:59:47.251Z,15.93
2023-02-14T17:02:14.343Z,15.73
2023-02-14T17:04:40.875Z,15.58
2023-02-14T17:07:08.018Z,15.45
2023-02-14T17:09:40.064Z,15.33
2023-02-14T17:12:16.136Z,15.24
2023-02-14T17:14:47.059Z,15.08
2023-02-14T17:17:14.107Z,14.93
2023-02-14T17:19:40.570Z,14.83
2023-02-14T17:22:07.758Z,14.74
2023-02-14T17:24:34.235Z,14.62
2023-02-14T17:27:00.736Z,14.54
2023-02-14T17:29:27.192Z,14.42
2023-02-14T17:31:53.775Z,14.33
2023-02-14T17:34:20.301Z,14.22
2023-02-14T17:36:46.987Z,14.10
2023-02-14T17:39:14.774Z,14.42
2023-02-14T17:41:41.263Z,13.95
2023-02-14T17:44:07.712Z,13.82
2023-02-14T17:46:34.222Z,13.72
2023-02-14T17:49:03.876Z,13.61
2023-02-14T17:51:30.408Z,13.49
2023-02-14T17:53:58.986Z,13.41
2023-02-14T17:56:26.865Z,13.30
2023-02-14T17:58:55.222Z,13.20
2023-02-14T18:01:25.291Z,13.13
2023-02-14T18:03:53.846Z,13.03
2023-02-14T18:06:21.383Z,12.92
2023-02-14T18:08:51.790Z,12.85
2023-02-14T18:11:20.412Z,12.76
2023-02-14T18:13:47.352Z,12.67
2023-02-14T18:16:16.146Z,12.59
2023-02-14T18:18:42.627Z,12.50
2023-02-14T18:21:11.906Z,12.44
2023-02-14T18:23:38.912Z,12.33
2023-02-14T18:26:10.392Z,12.28
2023-02-14T18:28:36.973Z,12.17
2023-02-14T18:31:04.990Z,12.12
2023-02-14T18:33:31.533Z,12.02
2023-02-14T18:36:00.793Z,11.97
2023-02-14T18:38:27.408Z,11.88
2023-02-14T18:40:53.864Z,11.82
2023-02-14T18:43:20.380Z,11.74
2023-02-14T18:45:47.142Z,11.67
2023-02-14T18:48:13.623Z,11.97
2023-02-14T18:50:40.072Z,11.57
2023-02-14T18:53:06.641Z,11.48
2023-02-14T18:55:33.451Z,11.41
2023-02-14T18:57:59.858Z,11.68
2023-02-14T19:00:27.185Z,11.29
2023-02-14T19:02:53.611Z,11.20
2023-02-14T19:05:20.088Z,11.13
2023-02-14T19:07:46.546Z,11.04
2023-02-14T19:10:13.099Z,10.98
2023-02-14T19:12:39.942Z,10.89
2023-02-14T19:15:06.501Z,11.18
2023-02-14T19:17:33.985Z,10.80
2023-02-14T19:20:00.589Z,10.72
2023-02-14T19:22:27.079Z,10.65
2023-02-14T19:24:53.831Z,10.58
2023-02-14T19:27:21.673Z,10.52
2023-02-14T19:29:48.343Z,10.45
2023-02-14T19:32:14.831Z,10.74
2023-02-14T19:34:41.395Z,10.37
2023-02-14T19:37:07.946Z,10.30
2023-02-14T19:39:34.451Z,10.23
2023-02-14T19:42:01.226Z,10.17
2023-02-14T19:44:29.312Z,10.43
2023-02-14T19:46:56.677Z,10.08
2023-02-14T19:49:23.452Z,10.00
2023-02-14T19:51:51.297Z,10.27
2023-02-14T19:54:18.839Z,9.94
2023-02-14T19:56:46.775Z,9.88
2023-02-14T19:59:19.994Z,9.83
2023-02-14T20:01:52.154Z,9.80
2023-02-14T20:04:22.321Z,9.76
2023-02-14T20:06:49.827Z,9.68
2023-02-14T20:09:17.466Z,9.65
2023-02-14T20:11:50.204Z,9.60
2023-02-14T20:14:28.464Z,9.65
2023-02-14T20:16:56.833Z,9.52
2023-02-14T20:19:27.009Z,9.48
2023-02-14T20:21:54.255Z,9.42
2023-02-14T20:24:23.444Z,9.38
2023-02-14T20:26:51.864Z,9.35
2023-02-14T20:29:19.826Z,9.29
2023-02-14T20:31:51.157Z,9.29
2023-02-14T20:34:19.102Z,9.22
2023-02-14T20:36:52.942Z,9.17
2023-02-14T20:39:21.469Z,9.14
2023-02-14T20:41:50.999Z,9.09
2023-02-14T20:44:21.955Z,9.07
2023-02-14T20:46:51.934Z,9.03
2023-02-14T20:49:19.857Z,8.99
2023-02-14T20:51:49.667Z,8.94
2023-02-14T20:54:18.124Z,8.91
2023-02-14T20:56:45.504Z,8.90
2023-02-14T20:59:12.140Z,8.89
2023-02-14T21:01:39.181Z,8.88
2023-02-14T21:04:05.966Z,8.87
2023-02-14T21:06:34.163Z,8.90
2023-02-14T21:09:01.263Z,8.87
2023-02-14T21:11:27.981Z,8.88
2023-02-14T21:13:59.647Z,9.17
2023-02-14T21:16:27.288Z,8.93
2023-02-14T21:18:58.989Z,8.92
2023-02-14T21:21:34.953Z,8.96
2023-02-14T21:24:13.212Z,8.98
2023-02-14T21:26:40.192Z,8.91
2023-02-14T21:29:07.561Z,8.91
2023-02-14T21:31:34.792Z,8.91
2023-02-14T21:34:02.591Z,8.91
2023-02-14T21:36:31.405Z,8.89
2023-02-14T21:38:59.018Z,8.88
2023-02-14T21:44:01.362Z,8.87
2023-02-14T21:46:31.169Z,8.87
2023-02-14T21:49:18.691Z,8.85
2023-02-14T21:51:46.222Z,8.87
2023-02-14T21:54:13.567Z,8.86
2023-02-14T21:56:41.488Z,8.88
2023-02-14T21:59:09.548Z,8.88
2023-02-14T22:01:39.248Z,8.91
2023-02-14T22:04:09.183Z,8.93
2023-02-14T22:06:38.156Z,8.95
2023-02-14T22:09:08.607Z,9.01
2023-02-14T22:11:35.246Z,9.01
2023-02-14T22:14:02.223Z,9.05
2023-02-14T22:16:29.407Z,9.07
2023-02-14T22:18:55.972Z,9.09
2023-02-14T22:21:25.661Z,9.14
2023-02-14T22:23:53.067Z,9.15
2023-02-14T22:26:19.471Z,9.14
2023-02-14T22:28:47.990Z,9.20
2023-02-14T22:31:16.424Z,9.19
2023-02-14T22:33:43.569Z,9.20
2023-02-14T22:36:10.729Z,9.22
2023-02-14T22:38:38.157Z,9.23
2023-02-14T22:41:13.132Z,9.29
2023-02-14T22:43:40.391Z,9.23
2023-02-14T22:46:10.267Z,9.25
2023-02-14T22:48:37.620Z,9.21
2023-02-14T22:51:21.168Z,9.29
2023-02-14T22:53:49.158Z,9.15
2023-02-14T22:56:16.849Z,9.14
2023-02-14T22:58:44.569Z,9.09
2023-02-14T23:01:18.742Z,9.11
2023-02-14T23:03:46.217Z,9.03
2023-02-14T23:06:13.798Z,8.98
2023-02-14T23:08:45.764Z,8.98
2023-02-14T23:11:15.473Z,8.93
2023-02-14T23:14:00.803Z,8.89
2023-02-14T23:16:45.983Z,8.88
2023-02-14T23:19:35.920Z,8.88
2023-02-14T23:22:08.400Z,8.90
2023-02-14T23:24:35.408Z,8.87
2023-02-14T23:27:02.423Z,8.88
2023-02-14T23:29:29.618Z,8.91
2023-02-14T23:31:56.404Z,8.91
2023-02-14T23:34:26.327Z,9.21
2023-02-14T23:36:52.960Z,8.99
2023-02-14T23:39:19.557Z,8.99
2023-02-14T23:41:48.755Z,9.02
2023-02-14T23:44:21.463Z,9.07
2023-02-14T23:46:49.684Z,9.04
2023-02-14T23:49:16.950Z,9.06
2023-02-14T23:51:45.187Z,9.09
2023-02-14T23:54:11.876Z,9.10
2023-02-14T23:56:38.807Z,9.13
2023-02-14T23:59:07.038Z,9.12
